createdAt,value
2017-11-24T00:00:30.220Z,97.27
2017-11-24T00:01:30.238Z,96.98
2017-11-24T00:02:30.276Z,97.08
2017-11-24T00:03:30.264Z,97.17
2017-11-24T00:04:30.300Z,97.08
2017-11-24T00:05:30.333Z,97.37
2017-11-24T00:06:30.334Z,97.85
2017-11-24T00:07:30.373Z,97.56
2017-11-24T00:08:45.034Z,97.94
2017-11-24T00:09:30.383Z,98.42
2017-11-24T00:10:30.422Z,98.51
2017-11-24T00:11:30.439Z,98.51
2017-11-24T00:12:30.467Z,98.42
2017-11-24T00:13:30.494Z,98.22
2017-11-24T00:14:30.514Z,98.03
2017-11-24T00:15:30.523Z,98.51
2017-11-24T00:16:30.532Z,98.13
2017-11-24T00:17:30.636Z,98.9
2017-11-24T00:18:30.580Z,98.8
2017-11-24T00:19:30.593Z,98.8
2017-11-24T00:20:30.635Z,98.61
2017-11-24T00:21:30.653Z,98.8
2017-11-24T00:22:30.649Z,99.08
2017-11-24T00:25:30.735Z,99.99
2017-11-24T00:26:30.470Z,99.6
2017-11-24T00:27:30.744Z,99.7
2017-11-24T00:28:30.780Z,99.99
2017-11-24T00:29:30.802Z,99.99
2017-11-24T00:30:30.838Z,99.99
2017-11-24T00:31:30.834Z,99.99
2017-11-24T00:32:30.838Z,99.99
2017-11-24T00:33:30.873Z,99.99
2017-11-24T00:34:30.885Z,99.99
2017-11-24T00:35:30.912Z,99.99
2017-11-24T00:36:30.945Z,99.99
2017-11-24T00:38:30.980Z,99.99
2017-11-24T00:39:30.982Z,99.99
2017-11-24T00:40:45.669Z,99.99
2017-11-24T00:41:31.049Z,99.99
2017-11-24T00:42:30.813Z,99.99
2017-11-24T00:43:31.091Z,99.99
2017-11-24T00:44:31.104Z,99.99
2017-11-24T00:45:31.112Z,99.99
2017-11-24T00:46:31.124Z,99.99
2017-11-24T00:47:31.153Z,99.99
2017-11-24T00:49:31.192Z,99.99
2017-11-24T00:50:31.224Z,99.99
2017-11-24T00:51:31.228Z,99.99
2017-11-24T00:52:30.993Z,99.99
2017-11-24T00:53:31.290Z,99.99
2017-11-24T00:56:45.991Z,99.99
2017-11-24T00:57:31.372Z,99.99
2017-11-24T00:58:31.438Z,99.99
2017-11-24T00:59:31.402Z,99.99
2017-11-24T01:00:31.438Z,99.99
2017-11-24T01:01:31.455Z,99.99
2017-11-24T01:02:31.197Z,99.99
2017-11-24T01:03:31.496Z,99.99
2017-11-24T01:04:31.498Z,99.99
2017-11-24T01:05:31.499Z,99.99
2017-11-24T01:06:31.530Z,99.99
2017-11-24T01:07:31.559Z,99.99
2017-11-24T01:08:31.565Z,99.99
2017-11-24T01:09:31.610Z,99.99
2017-11-24T01:11:31.649Z,99.99
2017-11-24T01:12:46.310Z,99.99
2017-11-24T01:13:31.419Z,99.99
2017-11-24T01:14:31.702Z,99.99
2017-11-24T01:15:31.724Z,99.99
2017-11-24T01:16:31.734Z,99.99
2017-11-24T01:17:31.772Z,99.99
2017-11-24T01:18:31.767Z,99.99
2017-11-24T01:19:31.807Z,99.99
2017-11-24T01:20:31.818Z,99.99
2017-11-24T01:21:31.843Z,99.99
2017-11-24T01:22:31.853Z,99.99
2017-11-24T01:23:31.881Z,99.99
2017-11-24T01:25:31.901Z,99.99
2017-11-24T01:26:31.939Z,99.99
2017-11-24T01:27:31.958Z,99.99
2017-11-24T01:28:46.631Z,99.99
2017-11-24T01:29:31.976Z,99.99
2017-11-24T01:30:32.019Z,99.99
2017-11-24T01:31:32.039Z,99.99
2017-11-24T01:33:32.076Z,99.99
2017-11-24T01:34:32.091Z,99.99
2017-11-24T01:35:32.122Z,99.99
2017-11-24T01:36:32.145Z,99.99
2017-11-24T01:37:32.148Z,99.99
2017-11-24T01:38:32.167Z,99.99
2017-11-24T01:39:32.178Z,99.99
2017-11-24T01:40:32.239Z,99.99
2017-11-24T01:41:32.231Z,99.99
2017-11-24T01:42:32.257Z,99.99
2017-11-24T01:43:46.919Z,99.99
2017-11-24T01:44:32.298Z,99.99
2017-11-24T01:45:32.321Z,99.99
2017-11-24T01:47:32.349Z,99.99
2017-11-24T01:49:32.389Z,99.99
2017-11-24T01:50:32.416Z,99.99
2017-11-24T01:51:32.443Z,99.99
2017-11-24T01:52:32.457Z,99.99
2017-11-24T01:53:32.460Z,99.99
2017-11-24T01:54:32.217Z,99.99
2017-11-24T01:55:32.263Z,99.99
2017-11-24T01:56:32.531Z,99.99
2017-11-24T01:57:32.564Z,99.99
2017-11-24T01:58:32.556Z,99.99
2017-11-24T01:59:32.598Z,99.99
2017-11-24T02:00:32.620Z,99.99
2017-11-24T02:01:32.377Z,99.99
2017-11-24T02:02:32.754Z,99.99
2017-11-24T02:04:32.681Z,99.99
2017-11-24T02:05:32.730Z,99.99
2017-11-24T02:06:32.738Z,99.99
2017-11-24T02:07:32.756Z,99.99
2017-11-24T02:08:32.777Z,99.99
2017-11-24T02:09:32.802Z,99.99
2017-11-24T02:10:32.796Z,99.99
2017-11-24T02:11:32.823Z,99.99
2017-11-24T02:12:32.863Z,99.99
2017-11-24T02:13:32.851Z,99.99
2017-11-24T02:14:32.899Z,99.99
2017-11-24T02:15:47.567Z,99.99
2017-11-24T02:16:32.944Z,99.99
2017-11-24T02:17:32.957Z,99.99
2017-11-24T02:18:32.715Z,99.99
2017-11-24T02:19:32.987Z,99.99
2017-11-24T02:20:32.989Z,99.99
2017-11-24T02:21:33.046Z,99.99
2017-11-24T02:22:33.056Z,99.99
2017-11-24T02:23:33.068Z,99.99
2017-11-24T02:24:33.080Z,99.99
2017-11-24T02:25:33.130Z,99.99
2017-11-24T02:26:33.134Z,99.99
2017-11-24T02:27:33.161Z,99.99
2017-11-24T02:28:33.154Z,99.99
2017-11-24T02:29:33.195Z,99.99
2017-11-24T02:30:33.219Z,99.99
2017-11-24T02:31:47.883Z,99.99
2017-11-24T02:32:33.236Z,99.99
2017-11-24T02:33:33.286Z,99.99
2017-11-24T02:34:33.281Z,99.99
2017-11-24T02:35:33.333Z,99.99
2017-11-24T02:36:33.316Z,99.99
2017-11-24T02:37:33.342Z,99.99
2017-11-24T02:38:33.359Z,99.99
2017-11-24T02:39:33.373Z,99.99
2017-11-24T02:40:33.421Z,99.99
2017-11-24T02:41:33.426Z,99.99
2017-11-24T02:42:33.431Z,99.99
2017-11-24T02:43:33.461Z,99.99
2017-11-24T02:44:33.226Z,99.99
2017-11-24T02:45:33.521Z,99.99
2017-11-24T02:46:33.552Z,99.99
2017-11-24T02:47:48.210Z,99.99
2017-11-24T02:49:33.598Z,99.99
2017-11-24T02:50:33.626Z,99.99
2017-11-24T02:51:33.371Z,99.99
2017-11-24T02:52:33.637Z,99.99
2017-11-24T02:53:33.676Z,99.99
2017-11-24T02:54:33.680Z,99.99
2017-11-24T02:55:33.714Z,99.99
2017-11-24T02:56:33.751Z,99.99
2017-11-24T02:57:33.468Z,99.99
2017-11-24T02:58:33.750Z,99.99
2017-11-24T02:59:33.794Z,99.99
2017-11-24T03:00:33.830Z,99.99
2017-11-24T03:01:33.838Z,99.99
2017-11-24T03:02:33.864Z,99.99
2017-11-24T03:03:48.522Z,99.99
2017-11-24T03:04:33.906Z,99.99
2017-11-24T03:05:33.907Z,99.99
2017-11-24T03:07:33.941Z,99.99
2017-11-24T03:08:33.975Z,99.99
2017-11-24T03:09:33.996Z,99.99
2017-11-24T03:10:34.023Z,99.99
2017-11-24T03:11:34.030Z,99.99
2017-11-24T03:12:34.041Z,99.99
2017-11-24T03:13:34.084Z,99.99
2017-11-24T03:14:34.099Z,99.99
2017-11-24T03:15:34.095Z,99.99
2017-11-24T03:16:34.121Z,99.99
2017-11-24T03:17:34.136Z,99.99
2017-11-24T03:18:48.828Z,99.99
2017-11-24T03:19:34.178Z,99.99
2017-11-24T03:20:34.213Z,99.99
2017-11-24T03:21:34.251Z,99.99
2017-11-24T03:22:34.251Z,99.99
2017-11-24T03:23:34.283Z,99.99
2017-11-24T03:24:34.279Z,99.99
2017-11-24T03:25:34.306Z,99.99
2017-11-24T03:26:34.337Z,99.99
2017-11-24T03:27:34.362Z,99.99
2017-11-24T03:28:34.360Z,99.99
2017-11-24T03:29:34.384Z,99.99
2017-11-24T03:30:34.422Z,99.99
2017-11-24T03:32:34.469Z,99.99
2017-11-24T03:33:34.497Z,99.99
2017-11-24T03:34:34.503Z,99.99
2017-11-24T03:35:34.521Z,99.99
2017-11-24T03:36:34.529Z,99.99
2017-11-24T03:37:34.279Z,99.99
2017-11-24T03:38:34.566Z,99.99
2017-11-24T03:39:34.578Z,99.99
2017-11-24T03:40:34.626Z,99.99
2017-11-24T03:41:34.610Z,99.99
2017-11-24T03:42:34.658Z,99.99
2017-11-24T03:43:34.661Z,99.99
2017-11-24T03:44:34.690Z,99.99
2017-11-24T03:45:34.730Z,99.99
2017-11-24T03:46:34.744Z,99.99
2017-11-24T03:47:34.834Z,99.99
2017-11-24T03:48:34.757Z,99.99
2017-11-24T03:49:34.519Z,99.99
2017-11-24T03:50:49.467Z,99.99
2017-11-24T03:51:34.822Z,99.99
2017-11-24T03:52:34.859Z,99.99
2017-11-24T03:54:34.895Z,99.99
2017-11-24T03:55:34.921Z,99.99
2017-11-24T03:56:34.933Z,99.99
2017-11-24T03:57:34.958Z,99.99
2017-11-24T03:58:34.969Z,99.99
2017-11-24T03:59:34.995Z,99.99
2017-11-24T04:01:35.027Z,99.99
2017-11-24T04:02:35.048Z,99.99
2017-11-24T04:03:35.061Z,99.99
2017-11-24T04:04:35.084Z,99.99
2017-11-24T04:05:35.117Z,99.99
2017-11-24T04:06:49.789Z,99.99
2017-11-24T04:07:35.139Z,99.99
2017-11-24T04:08:35.161Z,99.99
2017-11-24T04:09:35.179Z,99.99
2017-11-24T04:10:35.201Z,99.99
2017-11-24T04:11:35.233Z,99.99
2017-11-24T04:12:35.268Z,99.99
2017-11-24T04:14:35.269Z,99.99
2017-11-24T04:15:35.303Z,99.99
2017-11-24T04:16:35.338Z,99.99
2017-11-24T04:17:35.356Z,99.99
2017-11-24T04:18:35.358Z,99.99
2017-11-24T04:19:35.406Z,99.99
2017-11-24T04:20:35.392Z,99.99
2017-11-24T04:21:35.435Z,99.99
2017-11-24T04:22:50.103Z,99.99
2017-11-24T04:23:35.461Z,99.99
2017-11-24T04:24:35.476Z,99.99
2017-11-24T04:25:35.496Z,99.99
2017-11-24T04:26:35.518Z,99.99
2017-11-24T04:27:35.542Z,99.99
2017-11-24T04:28:35.580Z,99.99
2017-11-24T04:29:35.598Z,99.99
2017-11-24T04:30:35.354Z,99.99
2017-11-24T04:31:35.618Z,99.99
2017-11-24T04:32:35.654Z,99.99
2017-11-24T04:33:35.681Z,99.99
2017-11-24T04:34:35.678Z,99.99
2017-11-24T04:35:35.721Z,99.99
2017-11-24T04:36:35.701Z,99.99
2017-11-24T04:37:35.755Z,99.99
2017-11-24T04:38:50.413Z,99.99
2017-11-24T04:39:35.788Z,99.99
2017-11-24T04:40:35.813Z,99.99
2017-11-24T04:41:35.819Z,99.99
2017-11-24T04:42:35.839Z,99.99
2017-11-24T04:43:35.861Z,99.99
2017-11-24T04:44:35.621Z,99.99
2017-11-24T04:45:36.010Z,99.99
2017-11-24T04:46:35.921Z,99.99
2017-11-24T04:47:35.951Z,99.99
2017-11-24T04:48:35.983Z,99.99
2017-11-24T04:49:35.980Z,99.99
2017-11-24T04:50:36.020Z,99.99
2017-11-24T04:51:36.013Z,99.99
2017-11-24T04:52:36.033Z,99.99
2017-11-24T04:53:50.719Z,99.99
2017-11-24T04:54:36.090Z,99.99
2017-11-24T04:55:36.106Z,99.99
2017-11-24T04:56:36.131Z,99.99
2017-11-24T04:57:36.138Z,99.99
2017-11-24T04:58:36.175Z,99.99
2017-11-24T04:59:36.168Z,99.99
2017-11-24T05:00:36.192Z,99.99
2017-11-24T05:01:36.207Z,99.99
2017-11-24T05:02:36.226Z,99.99
2017-11-24T05:03:36.264Z,99.99
2017-11-24T05:04:36.280Z,99.99
2017-11-24T05:05:36.341Z,99.99
2017-11-24T05:06:36.302Z,99.99
2017-11-24T05:07:36.074Z,99.99
2017-11-24T05:08:36.352Z,99.99
2017-11-24T05:09:36.394Z,99.99
2017-11-24T05:10:36.122Z,99.99
2017-11-24T05:11:36.423Z,99.99
2017-11-24T05:13:36.457Z,99.99
2017-11-24T05:14:36.461Z,99.99
2017-11-24T05:15:36.494Z,99.99
2017-11-24T05:17:36.537Z,99.99
2017-11-24T05:18:36.542Z,99.99
2017-11-24T05:19:36.548Z,99.99
2017-11-24T05:20:36.582Z,99.99
2017-11-24T05:21:36.623Z,99.99
2017-11-24T05:22:36.364Z,99.99
2017-11-24T05:23:36.653Z,99.99
2017-11-24T05:24:36.678Z,99.99
2017-11-24T05:25:51.342Z,99.99
2017-11-24T05:26:36.694Z,99.99
2017-11-24T05:27:36.732Z,99.99
2017-11-24T05:29:36.767Z,99.99
2017-11-24T05:31:36.788Z,99.99
2017-11-24T05:32:36.811Z,99.99
2017-11-24T05:33:36.856Z,99.99
2017-11-24T05:34:36.852Z,99.99
2017-11-24T05:35:36.886Z,99.99
2017-11-24T05:36:36.925Z,99.99
2017-11-24T05:37:36.923Z,99.99
2017-11-24T05:38:36.945Z,99.99
2017-11-24T05:39:36.950Z,99.99
2017-11-24T05:40:36.983Z,99.99
2017-11-24T05:41:51.662Z,99.99
2017-11-24T05:42:37.050Z,99.99
2017-11-24T05:43:37.037Z,99.99
2017-11-24T05:44:37.067Z,99.99
2017-11-24T05:45:37.070Z,99.99
2017-11-24T05:46:37.120Z,99.99
2017-11-24T05:47:37.098Z,99.99
2017-11-24T05:48:37.138Z,99.99
2017-11-24T05:49:37.149Z,99.99
2017-11-24T05:50:37.167Z,99.99
2017-11-24T05:51:37.175Z,99.99
2017-11-24T05:53:37.324Z,99.99
2017-11-24T05:55:37.266Z,99.99
2017-11-24T05:56:37.334Z,99.99
2017-11-24T05:57:51.963Z,99.99
2017-11-24T05:59:37.073Z,99.99
2017-11-24T06:01:37.111Z,99.99
2017-11-24T06:02:37.399Z,99.99
2017-11-24T06:03:37.170Z,99.99
2017-11-24T06:04:37.187Z,99.99
2017-11-24T06:05:37.453Z,99.99
2017-11-24T06:06:37.515Z,99.99
2017-11-24T06:07:37.247Z,99.99
2017-11-24T06:08:37.512Z,99.99
2017-11-24T06:09:37.557Z,99.99
2017-11-24T06:10:37.543Z,99.99
2017-11-24T06:11:37.571Z,99.99
2017-11-24T06:12:37.615Z,99.99
2017-11-24T06:13:52.273Z,99.99
2017-11-24T06:14:37.635Z,99.99
2017-11-24T06:15:37.671Z,99.99
2017-11-24T06:16:37.690Z,99.99
2017-11-24T06:17:37.694Z,99.99
2017-11-24T06:18:37.720Z,99.99
2017-11-24T06:19:37.721Z,99.99
2017-11-24T06:20:37.769Z,99.99
2017-11-24T06:21:37.774Z,99.99
2017-11-24T06:22:37.775Z,99.99
2017-11-24T06:23:37.566Z,99.99
2017-11-24T06:24:37.835Z,99.99
2017-11-24T06:25:37.869Z,99.99
2017-11-24T06:26:37.879Z,99.99
2017-11-24T06:27:37.894Z,99.99
2017-11-24T06:28:52.571Z,99.99
2017-11-24T06:29:37.944Z,99.99
2017-11-24T06:30:37.943Z,99.99
2017-11-24T06:31:37.980Z,99.99
2017-11-24T06:32:37.723Z,99.99
2017-11-24T06:33:38.010Z,99.99
2017-11-24T06:34:38.011Z,99.99
2017-11-24T06:36:38.060Z,99.99
2017-11-24T06:37:38.097Z,99.99
2017-11-24T06:38:38.098Z,99.99
2017-11-24T06:39:38.125Z,99.99
2017-11-24T06:40:38.160Z,99.99
2017-11-24T06:41:38.168Z,99.99
2017-11-24T06:42:38.176Z,99.99
2017-11-24T06:43:38.211Z,99.99
2017-11-24T06:44:38.234Z,99.99
2017-11-24T06:45:38.243Z,99.99
2017-11-24T06:46:38.274Z,99.99
2017-11-24T06:47:38.292Z,99.99
2017-11-24T06:48:38.294Z,99.99
2017-11-24T06:49:38.330Z,99.99
2017-11-24T06:50:38.342Z,99.99
2017-11-24T06:51:38.346Z,99.99
2017-11-24T06:52:38.375Z,99.99
2017-11-24T06:53:38.406Z,99.99
2017-11-24T06:54:38.413Z,99.99
2017-11-24T06:55:38.457Z,99.99
2017-11-24T06:56:38.489Z,99.99
2017-11-24T06:57:38.208Z,99.99
2017-11-24T06:58:38.240Z,99.99
2017-11-24T06:59:38.247Z,99.99
2017-11-24T07:00:53.192Z,99.99
2017-11-24T07:01:38.556Z,99.99
2017-11-24T07:02:38.583Z,99.99
2017-11-24T07:03:38.619Z,99.99
2017-11-24T07:04:38.607Z,99.99
2017-11-24T07:05:38.646Z,99.99
2017-11-24T07:06:38.644Z,99.99
2017-11-24T07:07:38.398Z,99.99
2017-11-24T07:08:38.682Z,99.99
2017-11-24T07:09:38.725Z,99.99
2017-11-24T07:10:38.740Z,99.99
2017-11-24T07:12:38.767Z,99.99
2017-11-24T07:14:38.810Z,99.99
2017-11-24T07:15:38.553Z,99.99
2017-11-24T07:16:53.504Z,99.99
2017-11-24T07:17:38.850Z,99.99
2017-11-24T07:18:38.898Z,99.99
2017-11-24T07:19:38.648Z,99.99
2017-11-24T07:20:38.937Z,99.99
2017-11-24T07:21:38.936Z,99.99
2017-11-24T07:22:38.968Z,99.99
2017-11-24T07:23:38.965Z,99.99
2017-11-24T07:24:39.000Z,99.99
2017-11-24T07:25:39.017Z,99.99
2017-11-24T07:26:39.023Z,99.99
2017-11-24T07:27:39.041Z,99.99
2017-11-24T07:29:39.080Z,99.99
2017-11-24T07:30:39.100Z,99.99
2017-11-24T07:31:39.136Z,99.99
2017-11-24T07:32:53.815Z,99.99
2017-11-24T07:33:38.914Z,99.99
2017-11-24T07:34:39.305Z,99.99
2017-11-24T07:35:39.192Z,99.99
2017-11-24T07:36:39.238Z,99.99
2017-11-24T07:37:39.251Z,99.99
2017-11-24T07:38:39.275Z,99.99
2017-11-24T07:39:39.296Z,99.99
2017-11-24T07:40:39.290Z,99.99
2017-11-24T07:41:39.319Z,99.99
2017-11-24T07:42:39.351Z,99.99
2017-11-24T07:43:39.395Z,99.99
2017-11-24T07:44:39.390Z,99.99
2017-11-24T07:45:39.417Z,99.99
2017-11-24T07:46:39.433Z,99.99
2017-11-24T07:47:39.437Z,99.99
2017-11-24T07:48:54.134Z,99.99
2017-11-24T07:49:39.503Z,99.99
2017-11-24T07:50:39.518Z,99.99
2017-11-24T07:51:39.524Z,99.99
2017-11-24T07:52:39.557Z,99.99
2017-11-24T07:53:39.555Z,99.99
2017-11-24T07:54:39.577Z,99.99
2017-11-24T07:55:39.589Z,99.99
2017-11-24T07:56:39.624Z,99.99
2017-11-24T07:57:39.643Z,99.99
2017-11-24T07:58:39.654Z,99.99
2017-11-24T07:59:39.690Z,99.99
2017-11-24T08:00:39.707Z,99.99
2017-11-24T08:01:39.730Z,99.99
2017-11-24T08:02:39.741Z,99.99
2017-11-24T08:03:54.430Z,99.99
2017-11-24T08:04:39.796Z,99.99
2017-11-24T08:05:39.542Z,99.99
2017-11-24T08:06:39.839Z,99.99
2017-11-24T08:07:39.595Z,99.99
2017-11-24T08:08:39.854Z,99.99
2017-11-24T08:09:39.895Z,99.99
2017-11-24T08:10:39.645Z,99.99
2017-11-24T08:12:39.690Z,99.99
2017-11-24T08:13:39.806Z,99.99
2017-11-24T08:14:39.974Z,99.99
2017-11-24T08:15:39.999Z,99.95
2017-11-24T08:16:40.022Z,99.61
2017-11-24T08:17:40.059Z,99.56
2017-11-24T08:18:40.077Z,99.99
2017-11-24T08:19:40.074Z,99.61
2017-11-24T08:20:40.119Z,99.9
2017-11-24T08:21:40.132Z,99.99
2017-11-24T08:22:40.184Z,99.8
2017-11-24T08:23:40.183Z,99.99
2017-11-24T08:24:40.205Z,99.8
2017-11-24T08:25:40.206Z,99.99
2017-11-24T08:26:40.222Z,99.71
2017-11-24T08:27:40.249Z,99.04
2017-11-24T08:28:40.270Z,98.94
2017-11-24T08:29:40.303Z,98.75
2017-11-24T08:30:40.322Z,98.75
2017-11-24T08:31:40.328Z,98.56
2017-11-24T08:32:40.364Z,98.85
2017-11-24T08:33:40.361Z,98.56
2017-11-24T08:34:40.389Z,98.37
2017-11-24T08:35:55.078Z,99.13
2017-11-24T08:36:40.419Z,98.66
2017-11-24T08:37:40.444Z,98.66
2017-11-24T08:38:40.482Z,98.18
2017-11-24T08:39:40.490Z,97.99
2017-11-24T08:40:40.504Z,98.18
2017-11-24T08:41:40.546Z,98.18
2017-11-24T08:42:40.571Z,97.85
2017-11-24T08:43:40.576Z,97.89
2017-11-24T08:44:40.605Z,97.37
2017-11-24T08:45:40.609Z,97.42
2017-11-24T08:46:40.382Z,97.32
2017-11-24T08:47:40.670Z,97.61
2017-11-24T08:48:40.695Z,98.08
2017-11-24T08:49:40.711Z,97.89
2017-11-24T08:50:40.733Z,97.42
2017-11-24T08:51:55.418Z,97.42
2017-11-24T08:52:40.766Z,97.47
2017-11-24T08:53:40.784Z,97.08
2017-11-24T08:54:40.825Z,97.27
2017-11-24T08:55:40.810Z,97.08
2017-11-24T08:56:40.866Z,97.51
2017-11-24T08:57:40.875Z,96.98
2017-11-24T08:58:40.639Z,96.89
2017-11-24T08:59:40.913Z,96.8
2017-11-24T09:00:40.949Z,96.84
2017-11-24T09:01:40.954Z,96.94
2017-11-24T09:02:40.955Z,96.7
2017-11-24T09:03:40.988Z,97.22
2017-11-24T09:04:41.024Z,96.27
2017-11-24T09:05:41.032Z,96.37
2017-11-24T09:06:41.067Z,96.37
2017-11-24T09:07:55.737Z,96.08
2017-11-24T09:08:41.104Z,96.08
2017-11-24T09:09:41.113Z,96.32
2017-11-24T09:10:41.128Z,96.7
2017-11-24T09:11:41.166Z,96.03
2017-11-24T09:13:41.204Z,96.13
2017-11-24T09:14:41.234Z,95.84
2017-11-24T09:15:41.252Z,95.56
2017-11-24T09:16:41.273Z,95.75
2017-11-24T09:17:41.287Z,95.84
2017-11-24T09:18:41.309Z,95.27
2017-11-24T09:19:41.309Z,95.17
2017-11-24T09:20:41.335Z,95.17
2017-11-24T09:21:41.380Z,94.6
2017-11-24T09:22:41.379Z,94.12
2017-11-24T09:23:56.071Z,94.79
2017-11-24T09:24:41.417Z,94.7
2017-11-24T09:26:41.204Z,94.7
2017-11-24T09:27:41.239Z,94.31
2017-11-24T09:28:41.546Z,94.51
2017-11-24T09:29:41.538Z,94.46
2017-11-24T09:30:41.539Z,94.36
2017-11-24T09:31:41.558Z,94.41
2017-11-24T09:32:41.603Z,94.07
2017-11-24T09:33:41.617Z,94.03
2017-11-24T09:34:41.635Z,94.22
2017-11-24T09:35:41.654Z,94.7
2017-11-24T09:36:41.404Z,94.41
2017-11-24T09:37:41.432Z,94.51
2017-11-24T09:38:56.379Z,94.12
2017-11-24T09:39:41.743Z,94.79
2017-11-24T09:40:41.767Z,94.7
2017-11-24T09:41:41.792Z,94.6
2017-11-24T09:42:41.815Z,94.55
2017-11-24T09:43:41.810Z,94.27
2017-11-24T09:44:41.826Z,94.07
2017-11-24T09:45:41.852Z,93.21
2017-11-24T09:46:41.877Z,93.02
2017-11-24T09:47:41.900Z,92.74
2017-11-24T09:48:41.940Z,92.36
2017-11-24T09:49:41.939Z,92.45
2017-11-24T09:50:41.961Z,91.97
2017-11-24T09:51:42.002Z,91.88
2017-11-24T09:52:42.016Z,91.4
2017-11-24T09:53:42.026Z,91.5
2017-11-24T09:54:42.042Z,91.59
2017-11-24T09:55:42.083Z,91.69
2017-11-24T09:56:42.116Z,91.21
2017-11-24T09:57:42.127Z,91.21
2017-11-24T09:58:42.144Z,91.5
2017-11-24T09:59:42.180Z,91.59
2017-11-24T10:00:42.189Z,91.11
2017-11-24T10:01:42.215Z,91.45
2017-11-24T10:02:42.217Z,90.68
2017-11-24T10:03:42.253Z,90.59
2017-11-24T10:04:42.255Z,90.49
2017-11-24T10:05:42.292Z,90.68
2017-11-24T10:06:42.305Z,90.2
2017-11-24T10:07:42.061Z,90.11
2017-11-24T10:08:42.343Z,90.2
2017-11-24T10:09:42.379Z,90.11
2017-11-24T10:10:57.057Z,90.3
2017-11-24T10:11:42.443Z,89.73
2017-11-24T10:12:42.448Z,89.73
2017-11-24T10:14:42.504Z,88.77
2017-11-24T10:15:42.503Z,89.1
2017-11-24T10:16:42.536Z,88.81
2017-11-24T10:17:42.555Z,88.62
2017-11-24T10:18:42.571Z,88.53
2017-11-24T10:19:42.589Z,88.62
2017-11-24T10:20:42.622Z,88.24
2017-11-24T10:21:42.639Z,87.86
2017-11-24T10:22:42.660Z,88.15
2017-11-24T10:23:42.703Z,88.24
2017-11-24T10:24:42.708Z,87.95
2017-11-24T10:25:42.723Z,87.86
2017-11-24T10:26:57.400Z,88.15
2017-11-24T10:27:42.783Z,87.38
2017-11-24T10:28:42.794Z,87.38
2017-11-24T10:29:42.910Z,87.19
2017-11-24T10:30:42.813Z,87.29
2017-11-24T10:31:42.853Z,87.29
2017-11-24T10:32:42.960Z,87.29
2017-11-24T10:33:42.874Z,86.8
2017-11-24T10:34:42.915Z,87.33
2017-11-24T10:35:42.945Z,86.94
2017-11-24T10:36:42.962Z,86.28
2017-11-24T10:37:42.989Z,85.8
2017-11-24T10:38:43.007Z,86.57
2017-11-24T10:39:42.754Z,85.55
2017-11-24T10:40:43.035Z,85.46
2017-11-24T10:41:43.052Z,85.55
2017-11-24T10:42:57.745Z,84.98
2017-11-24T10:43:43.115Z,85.75
2017-11-24T10:44:43.111Z,85.84
2017-11-24T10:45:43.144Z,84.88
2017-11-24T10:46:43.193Z,84.98
2017-11-24T10:47:43.178Z,84.22
2017-11-24T10:48:43.225Z,84.41
2017-11-24T10:51:43.285Z,84.31
2017-11-24T10:52:43.291Z,84.06
2017-11-24T10:54:43.379Z,84.55
2017-11-24T10:55:43.382Z,84.16
2017-11-24T10:56:43.383Z,84.12
2017-11-24T10:57:43.399Z,84.31
2017-11-24T10:58:58.105Z,85.27
2017-11-24T10:59:43.471Z,84.69
2017-11-24T11:00:43.473Z,85.17
2017-11-24T11:01:43.510Z,84.41
2017-11-24T11:02:43.543Z,85.17
2017-11-24T11:03:43.540Z,84.22
2017-11-24T11:04:43.582Z,84.59
2017-11-24T11:05:43.607Z,84.22
2017-11-24T11:06:43.607Z,84.31
2017-11-24T11:07:43.622Z,84.88
2017-11-24T11:08:43.407Z,84.5
2017-11-24T11:09:43.672Z,84.31
2017-11-24T11:10:43.691Z,84.69
2017-11-24T11:11:43.714Z,84.22
2017-11-24T11:12:43.737Z,84.79
2017-11-24T11:13:58.433Z,85.08
2017-11-24T11:14:43.785Z,85.17
2017-11-24T11:15:43.801Z,84.79
2017-11-24T11:16:43.841Z,84.59
2017-11-24T11:18:43.887Z,84.79
2017-11-24T11:19:43.885Z,84.45
2017-11-24T11:21:44.008Z,84.41
2017-11-24T11:23:44.003Z,84.22
2017-11-24T11:25:43.771Z,84.59
2017-11-24T11:26:44.051Z,84.22
2017-11-24T11:27:44.091Z,84.22
2017-11-24T11:28:44.103Z,84.12
2017-11-24T11:29:44.111Z,84.22
2017-11-24T11:30:44.137Z,85.27
2017-11-24T11:31:44.161Z,85.08
2017-11-24T11:32:44.180Z,85.55
2017-11-24T11:33:44.225Z,85.27
2017-11-24T11:34:44.228Z,85.17
2017-11-24T11:35:44.263Z,84.88
2017-11-24T11:36:44.286Z,85.08
2017-11-24T11:37:44.308Z,84.98
2017-11-24T11:38:44.331Z,85.17
2017-11-24T11:39:44.338Z,84.79
2017-11-24T11:40:44.102Z,85.08
2017-11-24T11:41:44.393Z,84.79
2017-11-24T11:42:44.402Z,85.08
2017-11-24T11:43:44.424Z,84.92
2017-11-24T11:44:44.452Z,85.02
2017-11-24T11:45:59.142Z,84.31
2017-11-24T11:46:44.482Z,84.74
2017-11-24T11:47:44.530Z,84.45
2017-11-24T11:48:44.561Z,84.16
2017-11-24T11:49:44.581Z,84.06
2017-11-24T11:50:44.588Z,84.06
2017-11-24T11:51:44.592Z,83.68
2017-11-24T11:52:44.622Z,84.26
2017-11-24T11:53:44.655Z,83.78
2017-11-24T11:54:44.683Z,84.55
2017-11-24T11:55:44.689Z,84.16
2017-11-24T11:56:44.731Z,84.12
2017-11-24T11:57:44.746Z,84.92
2017-11-24T11:58:44.789Z,85.21
2017-11-24T11:59:44.796Z,85.12
2017-11-24T12:00:44.812Z,84.92
2017-11-24T12:01:59.497Z,84.83
2017-11-24T12:02:44.864Z,85.12
2017-11-24T12:03:44.862Z,84.26
2017-11-24T12:04:44.906Z,85.08
2017-11-24T12:05:44.903Z,85.36
2017-11-24T12:06:44.945Z,85.21
2017-11-24T12:07:44.973Z,85.5
2017-11-24T12:08:44.993Z,85.17
2017-11-24T12:09:44.992Z,85.55
2017-11-24T12:10:45.030Z,85.75
2017-11-24T12:12:45.060Z,86.04
2017-11-24T12:13:45.098Z,85.36
2017-11-24T12:14:45.104Z,86.36
2017-11-24T12:15:45.142Z,85.94
2017-11-24T12:16:45.154Z,86.61
2017-11-24T12:17:59.845Z,86.13
2017-11-24T12:18:44.948Z,85.75
2017-11-24T12:20:45.259Z,86.41
2017-11-24T12:21:45.258Z,86.41
2017-11-24T12:22:45.300Z,86.51
2017-11-24T12:23:45.318Z,86.13
2017-11-24T12:24:45.423Z,86.7
2017-11-24T12:25:45.369Z,86.8
2017-11-24T12:26:45.391Z,86.8
2017-11-24T12:27:45.401Z,86.99
2017-11-24T12:28:45.435Z,86.99
2017-11-24T12:29:45.439Z,86.8
2017-11-24T12:31:45.484Z,86.32
2017-11-24T12:32:45.527Z,86.41
2017-11-24T12:34:00.200Z,85.98
2017-11-24T12:34:45.572Z,85.84
2017-11-24T12:35:45.585Z,85.79
2017-11-24T12:36:45.589Z,86.08
2017-11-24T12:37:45.629Z,85.98
2017-11-24T12:38:45.633Z,86.27
2017-11-24T12:39:45.656Z,86.46
2017-11-24T12:40:45.709Z,85.69
2017-11-24T12:41:45.732Z,86.9
2017-11-24T12:42:45.737Z,86.22
2017-11-24T12:43:45.778Z,85.94
2017-11-24T12:44:45.764Z,86.51
2017-11-24T12:45:45.892Z,86.9
2017-11-24T12:46:45.832Z,87.08
2017-11-24T12:47:45.839Z,87.47
2017-11-24T12:49:00.532Z,87.37
2017-11-24T12:49:45.897Z,88.13
2017-11-24T12:50:45.905Z,88.33
2017-11-24T12:51:45.930Z,87.27
2017-11-24T12:52:45.964Z,88.33
2017-11-24T12:53:46.001Z,87.47
2017-11-24T12:54:45.993Z,87.47
2017-11-24T12:56:46.051Z,87.66
2017-11-24T12:57:45.815Z,87.95
2017-11-24T12:58:46.080Z,87.66
2017-11-24T12:59:46.096Z,88.29
2017-11-24T13:00:46.137Z,88.29
2017-11-24T13:01:46.146Z,88.43
2017-11-24T13:02:46.161Z,88
2017-11-24T13:03:46.201Z,88.48
2017-11-24T13:04:45.953Z,88.57
2017-11-24T13:05:46.228Z,88.95
2017-11-24T13:06:46.288Z,88.67
2017-11-24T13:07:46.299Z,88.57
2017-11-24T13:08:46.317Z,89.34
2017-11-24T13:10:46.367Z,88.95
2017-11-24T13:11:46.385Z,90.2
2017-11-24T13:12:46.411Z,90.48
2017-11-24T13:13:46.439Z,91.16
2017-11-24T13:14:46.470Z,92.02
2017-11-24T13:15:46.210Z,92.93
2017-11-24T13:16:46.497Z,94.26
2017-11-24T13:17:46.519Z,95.22
2017-11-24T13:18:46.539Z,96.18
2017-11-24T13:19:46.535Z,96.94
2017-11-24T13:21:01.241Z,97.08
2017-11-24T13:21:46.602Z,97.47
2017-11-24T13:22:46.609Z,98.33
2017-11-24T13:23:46.629Z,98.23
2017-11-24T13:24:46.394Z,98.23
2017-11-24T13:25:46.666Z,98.33
2017-11-24T13:26:46.722Z,98.52
2017-11-24T13:27:46.719Z,98.52
2017-11-24T13:29:46.777Z,98.75
2017-11-24T13:30:46.801Z,98.94
2017-11-24T13:31:46.823Z,99.28
2017-11-24T13:32:46.815Z,99.99
2017-11-24T13:33:46.860Z,99.71
2017-11-24T13:34:46.606Z,99.99
2017-11-24T13:35:46.896Z,99.99
2017-11-24T13:37:01.578Z,99.99
2017-11-24T13:37:46.955Z,99.99
2017-11-24T13:39:46.972Z,99.99
2017-11-24T13:40:46.995Z,99.99
2017-11-24T13:41:47.023Z,99.99